Time;durP1;ratioP1;P1;durP2;ratioP2;P2;SDS_P1;SDS_P2;PMS_P1;PMS_P2;Temp;Humidity;BMP_temperature;BMP_pressure;BME280_temperature;BME280_humidity;BME280_pressure;Samples;Min_cycle;Max_cycle;Signal;HPM_P1;HPM_P2
2023/04/28 00:04:09;;;;;;;5.10;3.63;;;;;;;6.40;100.00;98438.22;15292371;19;20018;-76
2023/04/28 00:09:37;;;;;;;3.90;3.13;;;;;;;6.46;100.00;98432.31;15294615;19;20019;-76
2023/04/28 00:15:02;;;;;;;5.78;3.60;;;;;;;6.50;100.00;98426.69;15282772;19;20633;-76
2023/04/28 00:20:27;;;;;;;5.75;3.50;;;;;;;6.52;100.00;98414.84;15282400;19;20017;-76
2023/04/28 00:25:57;;;;;;;5.05;3.45;;;;;;;6.57;100.00;98414.44;15281956;19;20371;-76
2023/04/28 00:31:23;;;;;;;6.43;3.67;;;;;;;6.57;100.00;98401.06;15287846;19;20422;-75
2023/04/28 00:36:47;;;;;;;5.53;3.20;;;;;;;6.61;100.00;98399.81;15281920;19;20018;-75
2023/04/28 00:42:15;;;;;;;4.97;3.70;;;;;;;6.63;100.00;98385.31;15287340;19;20015;-73
2023/04/28 00:47:40;;;;;;;3.80;3.38;;;;;;;6.67;100.00;98385.88;15280327;19;20014;-75
2023/04/28 00:53:05;;;;;;;4.35;3.40;;;;;;;6.69;100.00;98383.06;15284373;19;20018;-75
2023/04/28 00:58:36;;;;;;;4.97;3.50;;;;;;;6.68;100.00;98392.09;15280171;19;20019;-76
2023/04/28 01:04:01;;;;;;;6.10;3.92;;;;;;;6.65;100.00;98368.25;15282481;19;20086;-74
2023/04/28 01:09:25;;;;;;;6.50;3.72;;;;;;;6.61;100.00;98365.03;15284786;19;20031;-75
2023/04/28 01:14:55;;;;;;;7.00;3.80;;;;;;;6.60;100.00;98348.09;15279646;19;20017;-75
2023/04/28 01:20:20;;;;;;;6.07;3.70;;;;;;;6.59;100.00;98349.06;15276717;19;20022;-76
2023/04/28 01:25:47;;;;;;;4.22;3.65;;;;;;;6.57;100.00;98347.53;15278548;19;20082;-75
2023/04/28 01:31:12;;;;;;;5.05;3.70;;;;;;;6.50;100.00;98341.03;15280287;19;20026;-76
2023/04/28 01:36:37;;;;;;;5.00;3.58;;;;;;;6.50;100.00;98331.16;15282051;19;20007;-76
2023/04/28 01:42:11;;;;;;;4.53;3.58;;;;;;;6.52;100.00;98336.41;15289239;19;20647;-74
2023/04/28 01:47:37;;;;;;;7.15;3.65;;;;;;;6.44;100.00;98332.56;15290005;19;20070;-76
2023/04/28 01:53:03;;;;;;;4.40;3.55;;;;;;;6.35;100.00;98321.84;15349983;19;20022;-74
2023/04/28 01:58:30;;;;;;;7.10;3.80;;;;;;;6.32;100.00;98312.25;15277426;19;20391;-76
2023/04/28 02:03:56;;;;;;;5.68;3.83;;;;;;;6.31;100.00;98299.84;15276072;19;20016;-76
2023/04/28 02:09:22;;;;;;;7.05;4.20;;;;;;;6.28;100.00;98300.97;15279363;19;20015;-75
2023/04/28 02:14:50;;;;;;;4.75;3.78;;;;;;;6.30;100.00;98320.44;15276564;19;20020;-76
2023/04/28 02:20:15;;;;;;;5.22;3.88;;;;;;;6.30;100.00;98319.56;15275205;19;20375;-75
2023/04/28 02:25:39;;;;;;;5.63;3.80;;;;;;;6.33;100.00;98313.94;15270310;19;20021;-76
2023/04/28 02:31:17;;;;;;;6.43;4.10;;;;;;;6.34;100.00;98306.78;15279443;19;20023;-76
2023/04/28 02:36:42;;;;;;;6.95;4.30;;;;;;;6.26;100.00;98302.13;15272824;19;20048;-74
2023/04/28 02:42:06;;;;;;;5.55;3.97;;;;;;;6.21;100.00;98297.19;15284251;19;20010;-76
2023/04/28 02:47:33;;;;;;;6.65;4.15;;;;;;;6.16;100.00;98291.38;15292849;19;20350;-74
2023/04/28 02:53:00;;;;;;;8.93;4.35;;;;;;;6.12;100.00;98288.13;15294090;19;20021;-74
2023/04/28 02:58:25;;;;;;;5.80;4.40;;;;;;;6.01;100.00;98272.19;15288924;19;20367;-76
2023/04/28 03:03:53;;;;;;;6.43;4.38;;;;;;;5.94;100.00;98279.03;15293311;19;20011;-76
2023/04/28 03:09:18;;;;;;;6.07;4.00;;;;;;;5.85;100.00;98265.50;15293490;19;20015;-76
2023/04/28 03:14:42;;;;;;;9.45;4.43;;;;;;;5.80;100.00;98259.72;15298893;19;20022;-78
2023/04/28 03:20:11;;;;;;;7.03;4.55;;;;;;;5.76;100.00;98255.59;15305012;19;20484;-77
2023/04/28 03:25:37;;;;;;;4.72;4.03;;;;;;;5.70;100.00;98243.63;15343194;19;20358;-76
2023/04/28 03:31:02;;;;;;;6.50;4.53;;;;;;;5.70;100.00;98229.44;15309035;19;20015;-78
2023/04/28 03:36:29;;;;;;;6.50;4.38;;;;;;;5.71;100.00;98223.94;15292279;19;20014;-79
2023/04/28 03:42:02;;;;;;;6.88;4.03;;;;;;;5.76;100.00;98220.03;15301964;19;20011;-78
2023/04/28 03:47:50;;;;;;;7.97;4.10;;;;;;;5.76;100.00;98214.69;15299305;19;20018;-79
2023/04/28 03:53:17;;;;;;;7.63;3.90;;;;;;;5.78;100.00;98207.34;15298927;19;20742;-78
2023/04/28 03:58:43;;;;;;;5.95;4.00;;;;;;;5.80;100.00;98206.25;15299574;19;20013;-78
2023/04/28 04:04:08;;;;;;;6.10;3.85;;;;;;;5.83;100.00;98210.47;15302425;19;20022;-78
2023/04/28 04:09:45;;;;;;;6.32;4.10;;;;;;;5.88;100.00;98202.88;15303018;19;20432;-77
2023/04/28 04:15:14;;;;;;;6.50;3.90;;;;;;;5.93;100.00;98197.97;15288483;19;20020;-76
2023/04/28 04:20:39;;;;;;;5.30;4.05;;;;;;;5.97;100.00;98195.84;15286614;19;20556;-76
2023/04/28 04:26:07;;;;;;;5.97;3.95;;;;;;;6.03;100.00;98189.16;15284785;19;20022;-75
2023/04/28 04:31:34;;;;;;;6.38;3.90;;;;;;;6.06;100.00;98180.84;15286832;19;20090;-76
2023/04/28 04:37:00;;;;;;;5.82;4.13;;;;;;;6.13;100.00;98185.50;15285767;19;20052;-76
2023/04/28 04:42:33;;;;;;;7.03;4.38;;;;;;;6.21;100.00;98166.09;15291143;19;20010;-77
2023/04/28 04:48:01;;;;;;;5.72;4.15;;;;;;;6.29;100.00;98163.56;15294679;19;20014;-76
2023/04/28 04:53:27;;;;;;;8.23;3.92;;;;;;;6.38;100.00;98174.41;15291937;19;20019;-77
2023/04/28 04:59:07;;;;;;;7.18;3.80;;;;;;;6.46;100.00;98172.72;15298450;19;20018;-77
2023/04/28 05:04:46;;;;;;;7.67;3.80;;;;;;;6.52;100.00;98167.78;15348913;19;20015;-76
2023/04/28 05:10:26;;;;;;;5.33;3.93;;;;;;;6.60;100.00;98170.59;15284920;19;20465;-75
2023/04/28 05:15:52;;;;;;;5.22;3.70;;;;;;;6.70;100.00;98166.06;15278898;19;20038;-76
2023/04/28 05:21:55;;;;;;;5.78;3.88;;;;;;;6.79;100.00;98165.22;15281082;19;20038;-77
2023/04/28 05:27:21;;;;;;;6.00;3.85;;;;;;;6.91;100.00;98157.00;15286034;19;20011;-77
2023/04/28 05:32:46;;;;;;;5.65;3.70;;;;;;;7.00;100.00;98140.06;15284537;19;20472;-77
2023/04/28 05:38:13;;;;;;;6.43;3.83;;;;;;;7.12;100.00;98142.56;15279959;19;20011;-76
2023/04/28 05:43:40;;;;;;;4.28;3.40;;;;;;;7.21;100.00;98136.34;15282927;19;20018;-76
2023/04/28 05:49:06;;;;;;;4.32;3.33;;;;;;;7.33;100.00;98139.66;15281752;19;20018;-77
2023/04/28 05:54:34;;;;;;;4.45;3.08;;;;;;;7.44;100.00;98138.66;15281087;19;20078;-76
2023/04/28 06:00:05;;;;;;;5.20;3.28;;;;;;;7.58;100.00;98130.13;15279176;19;20350;-77
2023/04/28 06:05:31;;;;;;;6.50;3.33;;;;;;;7.71;100.00;98138.63;15276795;19;20497;-76
2023/04/28 06:11:01;;;;;;;4.57;3.00;;;;;;;7.86;100.00;98135.44;15278856;19;20011;-76
2023/04/28 06:16:26;;;;;;;5.32;3.17;;;;;;;8.05;100.00;98149.75;15279148;19;20014;-77
2023/04/28 06:21:51;;;;;;;5.03;2.80;;;;;;;8.21;100.00;98149.88;15280849;19;20015;-77
2023/04/28 06:27:20;;;;;;;4.60;2.70;;;;;;;8.43;100.00;98147.72;15283766;19;20007;-76
2023/04/28 06:32:44;;;;;;;7.65;2.60;;;;;;;8.62;100.00;98141.38;15290281;19;20019;-77
2023/04/28 06:38:10;;;;;;;4.57;2.50;;;;;;;8.82;100.00;98144.72;15290955;19;20014;-76
2023/04/28 06:43:37;;;;;;;5.15;2.33;;;;;;;9.04;100.00;98139.81;15278090;19;20482;-77
2023/04/28 06:49:07;;;;;;;4.50;2.30;;;;;;;9.24;100.00;98141.28;15282066;19;20031;-77
2023/04/28 06:54:33;;;;;;;4.05;2.22;;;;;;;9.41;100.00;98130.63;15277073;19;20034;-78
2023/04/28 07:00:00;;;;;;;3.25;2.15;;;;;;;9.62;100.00;98129.34;15282815;19;20060;-77
2023/04/28 07:05:25;;;;;;;4.60;2.03;;;;;;;9.78;100.00;98124.03;15279670;19;20013;-77
2023/04/28 07:10:50;;;;;;;4.03;2.17;;;;;;;9.83;100.00;98121.69;15286100;19;20472;-77
2023/04/28 07:16:18;;;;;;;4.18;2.03;;;;;;;9.92;100.00;98127.09;15273777;19;20017;-76
2023/04/28 07:21:43;;;;;;;3.67;2.33;;;;;;;9.94;100.00;98119.69;15281376;19;20018;-77
2023/04/28 07:27:08;;;;;;;4.28;2.22;;;;;;;10.05;100.00;98121.22;15261496;19;20007;-77
2023/04/28 07:32:36;;;;;;;3.80;2.10;;;;;;;10.21;100.00;98125.78;15297009;19;20086;-77
2023/04/28 07:38:01;;;;;;;3.92;2.17;;;;;;;10.29;100.00;98123.97;15299821;19;20022;-77
2023/04/28 07:43:27;;;;;;;6.65;2.50;;;;;;;10.39;100.00;98114.91;15344192;19;20010;-75
2023/04/28 07:48:54;;;;;;;3.13;2.00;;;;;;;10.49;100.00;98120.97;15296633;19;20022;-77
2023/04/28 07:54:20;;;;;;;5.22;2.20;;;;;;;10.46;100.00;98119.47;15286959;19;20019;-77
2023/04/28 07:59:51;;;;;;;3.95;2.25;;;;;;;10.56;100.00;98121.13;15291492;19;20035;-77
2023/04/28 08:05:25;;;;;;;4.53;2.38;;;;;;;10.57;100.00;98114.75;15291941;19;20486;-77
2023/04/28 08:10:49;;;;;;;5.35;2.45;;;;;;;10.47;100.00;98107.69;15302548;19;20010;-78
2023/04/28 08:21:40;;;;;;;4.35;2.40;;;;;;;10.32;100.00;98115.56;15350115;19;20014;-77
2023/04/28 08:27:05;;;;;;;3.70;2.60;;;;;;;10.28;100.00;98116.06;15283701;19;20017;-77
2023/04/28 08:32:30;;;;;;;5.30;2.63;;;;;;;10.32;100.00;98114.69;15290376;19;20049;-77
2023/04/28 08:37:58;;;;;;;4.95;2.47;;;;;;;10.33;100.00;98119.06;15288892;19;20571;-77
2023/04/28 08:43:23;;;;;;;5.05;2.28;;;;;;;10.30;100.00;98131.03;15290673;19;20039;-77
2023/04/28 08:48:48;;;;;;;5.50;2.53;;;;;;;10.21;100.00;98137.44;15280482;19;20078;-77
2023/04/28 08:54:18;;;;;;;7.53;2.70;;;;;;;10.18;100.00;98138.56;15286309;19;20026;-77
2023/04/28 08:59:44;;;;;;;6.78;2.60;;;;;;;10.23;100.00;98139.94;15293086;19;20074;-77
2023/04/28 09:05:09;;;;;;;4.68;2.60;;;;;;;10.27;100.00;98130.53;15290827;19;20021;-77
2023/04/28 09:10:36;;;;;;;4.72;2.83;;;;;;;10.34;100.00;98139.63;15295059;19;20014;-77
2023/04/28 09:16:07;;;;;;;5.13;2.83;;;;;;;10.43;100.00;98144.03;15287419;19;20019;-76
2023/04/28 09:21:33;;;;;;;3.93;2.37;;;;;;;10.50;100.00;98143.38;15285100;19;20006;-77
2023/04/28 09:27:01;;;;;;;3.80;2.50;;;;;;;10.60;100.00;98135.97;15287321;19;20013;-76
2023/04/28 09:32:27;;;;;;;4.50;2.70;;;;;;;10.74;100.00;98137.97;15290834;19;20010;-77
2023/04/28 09:37:52;;;;;;;4.22;2.60;;;;;;;10.89;100.00;98132.75;15289092;19;20073;-76
2023/04/28 09:43:28;;;;;;;4.38;2.40;;;;;;;10.87;100.00;98131.25;15288434;19;20022;-77
2023/04/28 09:48:53;;;;;;;3.53;2.50;;;;;;;10.92;100.00;98145.03;15283519;19;20325;-77
2023/04/28 09:54:19;;;;;;;3.55;2.38;;;;;;;10.83;100.00;98132.59;15277754;19;20002;-77
2023/04/28 09:59:56;;;;;;;4.93;2.20;;;;;;;10.74;100.00;98143.38;15286037;19;20028;-77
2023/04/28 10:05:24;;;;;;;2.97;2.17;;;;;;;10.66;100.00;98123.66;15281528;19;20399;-76
2023/04/28 10:10:53;;;;;;;3.75;2.40;;;;;;;10.60;100.00;98117.09;15283940;19;20478;-77
2023/04/28 10:16:21;;;;;;;3.85;2.25;;;;;;;10.60;100.00;98100.94;15278768;19;20540;-77
2023/04/28 10:21:55;;;;;;;5.32;2.20;;;;;;;10.47;100.00;98104.13;15281408;19;20007;-76
2023/04/28 10:27:21;;;;;;;3.05;2.42;;;;;;;10.64;100.00;98111.22;15277418;19;20017;-77
2023/04/28 10:32:49;;;;;;;3.50;2.50;;;;;;;10.83;100.00;98098.38;15282956;19;20053;-77
2023/04/28 10:38:15;;;;;;;3.15;2.38;;;;;;;11.20;100.00;98090.72;15283188;19;20021;-77
2023/04/28 10:43:49;;;;;;;4.70;2.30;;;;;;;11.37;100.00;98078.84;15279445;19;20364;-77
2023/04/28 10:49:18;;;;;;;3.88;2.40;;;;;;;11.48;100.00;98080.34;15284091;19;20082;-77
2023/04/28 10:54:42;;;;;;;3.88;2.33;;;;;;;11.43;100.00;98054.91;15267681;19;20022;-77
2023/04/28 11:00:29;;;;;;;4.18;2.55;;;;;;;11.38;100.00;98058.94;15278213;19;20446;-77
2023/04/28 11:06:28;;;;;;;3.85;2.30;;;;;;;11.39;100.00;98060.63;15291864;19;20017;-77
2023/04/28 11:12:09;;;;;;;6.47;2.50;;;;;;;11.37;100.00;98061.84;15273168;19;20479;-77
2023/04/28 11:17:48;;;;;;;5.03;2.57;;;;;;;11.29;100.00;98056.50;15294879;19;20026;-77
2023/04/28 11:23:16;;;;;;;3.83;2.30;;;;;;;11.27;100.00;98059.34;15305146;19;20054;-77
2023/04/28 11:28:41;;;;;;;5.70;2.50;;;;;;;11.30;100.00;98042.81;15306731;19;20014;-77
2023/04/28 11:34:10;;;;;;;3.72;2.60;;;;;;;11.29;100.00;98038.44;15294090;19;20031;-77
2023/04/28 11:39:40;;;;;;;4.72;2.42;;;;;;;11.33;100.00;98044.31;15304653;19;20006;-77
2023/04/28 11:45:05;;;;;;;4.32;2.60;;;;;;;11.30;100.00;98034.72;15337061;19;20024;-77
2023/04/28 11:50:44;;;;;;;4.47;2.42;;;;;;;11.34;100.00;98041.47;15334564;19;20018;-77
2023/04/28 11:56:13;;;;;;;3.20;2.28;;;;;;;11.39;100.00;98016.66;15324272;19;20055;-77
2023/04/28 12:01:39;;;;;;;3.45;2.30;;;;;;;11.42;100.00;98016.28;15317120;19;20092;-77
2023/04/28 12:07:06;;;;;;;3.15;2.20;;;;;;;11.52;100.00;98021.47;15281820;19;20018;-77
2023/04/28 12:12:39;;;;;;;3.00;2.20;;;;;;;11.54;100.00;98020.25;15292236;19;20014;-78
2023/04/28 12:18:12;;;;;;;4.30;2.47;;;;;;;11.58;100.00;98015.38;15287613;19;20014;-77
2023/04/28 12:23:42;;;;;;;3.25;2.35;;;;;;;11.68;100.00;98004.34;15287891;19;20019;-77
2023/04/28 12:29:10;;;;;;;3.17;2.10;;;;;;;11.80;100.00;98002.06;15292713;19;20025;-77
2023/04/28 12:34:35;;;;;;;4.63;2.35;;;;;;;12.03;100.00;98002.09;15286500;19;20035;-77
2023/04/28 12:40:00;;;;;;;4.18;2.33;;;;;;;12.31;100.00;97988.84;15304590;19;20015;-78
2023/04/28 12:45:29;;;;;;;3.25;2.30;;;;;;;12.50;100.00;97978.56;15299262;19;20544;-78
2023/04/28 12:50:56;;;;;;;4.40;2.10;;;;;;;12.67;100.00;97970.25;15293855;19;20025;-77
2023/04/28 12:56:20;;;;;;;2.60;2.15;;;;;;;12.86;100.00;97969.72;15283842;19;20043;-77
2023/04/28 13:01:47;;;;;;;4.13;2.10;;;;;;;13.08;100.00;97961.66;15286921;19;20010;-77
2023/04/28 13:07:12;;;;;;;3.22;2.25;;;;;;;13.26;100.00;97959.38;15285376;19;20029;-78
2023/04/28 13:12:37;;;;;;;3.53;1.90;;;;;;;13.43;100.00;97958.34;15292393;19;20018;-77
2023/04/28 13:18:05;;;;;;;3.38;2.00;;;;;;;13.47;100.00;97941.53;15288834;19;20020;-78
2023/04/28 13:23:30;;;;;;;2.65;1.77;;;;;;;13.64;100.00;97935.88;15285533;19;20082;-78
2023/04/28 13:28:55;;;;;;;3.00;1.92;;;;;;;13.97;100.00;97921.81;15296047;19;20432;-78
2023/04/28 13:34:24;;;;;;;2.85;1.88;;;;;;;14.08;100.00;97906.91;15299713;19;20030;-77
2023/04/28 13:39:48;;;;;;;2.13;1.77;;;;;;;14.18;100.00;97894.66;15294779;19;20387;-80
2023/04/28 13:45:13;;;;;;;2.53;1.80;;;;;;;14.37;100.00;97895.03;15291526;19;20077;-80
2023/04/28 13:50:42;;;;;;;2.75;1.88;;;;;;;14.44;100.00;97890.47;15295092;19;20081;-80
2023/04/28 13:56:08;;;;;;;2.80;1.85;;;;;;;14.31;100.00;97884.97;15291461;19;20014;-80
2023/04/28 14:01:39;;;;;;;1.80;1.50;;;;;;;14.28;100.00;97896.22;15294288;19;20027;-80
2023/04/28 14:07:08;;;;;;;2.65;1.67;;;;;;;14.20;100.00;97894.50;15290306;19;20018;-81
2023/04/28 14:12:32;;;;;;;2.78;1.67;;;;;;;14.18;100.00;97891.97;15292753;19;20032;-78
2023/04/28 14:17:57;;;;;;;2.00;1.50;;;;;;;14.04;100.00;97890.22;15301600;19;20046;-79
2023/04/28 14:23:25;;;;;;;4.18;1.80;;;;;;;14.00;100.00;97883.50;15295173;19;20019;-78
2023/04/28 14:28:50;;;;;;;2.28;1.65;;;;;;;13.96;100.00;97882.22;15304392;19;20023;-78
2023/04/28 14:34:16;;;;;;;2.35;1.60;;;;;;;13.90;100.00;97880.31;15313166;19;20030;-79
2023/04/28 14:39:45;;;;;;;2.70;1.60;;;;;;;13.87;100.00;97868.84;15325557;19;20017;-77
2023/04/28 14:45:10;;;;;;;2.22;1.60;;;;;;;13.89;100.00;97865.91;15304184;19;20077;-77
2023/04/28 14:50:35;;;;;;;5.43;1.60;;;;;;;13.85;100.00;97862.75;15299363;19;20361;-78
2023/04/28 14:56:02;;;;;;;2.40;1.58;;;;;;;13.84;100.00;97860.25;15291100;19;20017;-77
2023/04/28 15:01:43;;;;;;;3.50;1.50;;;;;;;13.78;100.00;97853.78;15296642;19;20496;-78
2023/04/28 15:07:09;;;;;;;2.08;1.55;;;;;;;13.76;100.00;97855.81;15297733;19;20015;-77
2023/04/28 15:12:36;;;;;;;2.42;1.30;;;;;;;13.77;100.00;97856.66;15298707;19;20035;-77
2023/04/28 15:18:03;;;;;;;1.60;1.50;;;;;;;13.83;100.00;97845.06;15296249;19;20019;-78
2023/04/28 15:23:30;;;;;;;1.55;1.20;;;;;;;13.82;100.00;97844.19;15315068;19;20006;-76
2023/04/28 15:28:58;;;;;;;2.00;1.30;;;;;;;13.82;100.00;97846.91;15362296;19;20050;-77
2023/04/28 15:34:23;;;;;;;2.35;1.48;;;;;;;13.82;100.00;97852.31;15293900;19;20844;-78
2023/04/28 15:39:48;;;;;;;2.40;1.63;;;;;;;13.80;100.00;97846.28;15299885;19;20031;-77
2023/04/28 15:45:20;;;;;;;2.85;1.50;;;;;;;13.83;100.00;97837.75;15291457;19;20014;-78
2023/04/28 15:50:45;;;;;;;2.47;1.40;;;;;;;13.87;100.00;97828.22;15297308;19;20011;-78
2023/04/28 15:56:11;;;;;;;1.67;1.30;;;;;;;13.90;100.00;97831.56;15302114;19;20011;-78
2023/04/28 16:01:46;;;;;;;1.77;1.00;;;;;;;13.90;100.00;97834.28;15299875;19;20034;-78
2023/04/28 16:07:11;;;;;;;1.20;1.10;;;;;;;13.81;100.00;97836.28;15290065;19;20014;-77
2023/04/28 16:12:37;;;;;;;1.10;1.00;;;;;;;13.75;100.00;97823.56;15297633;19;20017;-77
2023/04/28 16:18:05;;;;;;;0.82;0.82;;;;;;;13.73;100.00;97834.56;15297514;19;20013;-77
2023/04/28 16:23:32;;;;;;;1.38;1.20;;;;;;;13.74;100.00;97822.69;15335744;19;20010;-79
2023/04/28 16:28:57;;;;;;;1.20;1.10;;;;;;;13.77;100.00;97825.03;15302080;19;20019;-79
2023/04/28 16:34:24;;;;;;;1.42;1.30;;;;;;;13.78;100.00;97837.53;15310912;19;20073;-80
2023/04/28 16:39:49;;;;;;;1.20;1.10;;;;;;;13.73;100.00;97831.03;15312316;19;20014;-79
2023/04/28 16:45:16;;;;;;;1.20;1.10;;;;;;;13.68;100.00;97837.84;15312465;19;20019;-80
2023/04/28 16:50:44;;;;;;;1.30;1.20;;;;;;;13.63;100.00;97832.22;15299674;19;20017;-79
2023/04/28 16:56:09;;;;;;;1.25;1.10;;;;;;;13.53;100.00;97840.66;15292736;19;20041;-79
2023/04/28 17:01:40;;;;;;;1.00;1.00;;;;;;;13.45;100.00;97837.22;15296309;19;20023;-80
2023/04/28 17:07:09;;;;;;;1.23;1.10;;;;;;;13.44;100.00;97841.81;15293618;19;20466;-79
2023/04/28 17:12:33;;;;;;;1.88;1.70;;;;;;;13.40;100.00;97835.13;15301820;19;20015;-78
2023/04/28 17:17:58;;;;;;;1.70;1.60;;;;;;;13.38;100.00;97835.28;15301344;19;20042;-79
2023/04/28 17:23:26;;;;;;;1.40;1.30;;;;;;;13.40;100.00;97835.13;15296232;19;20018;-79
2023/04/28 17:28:51;;;;;;;1.58;1.48;;;;;;;13.38;100.00;97832.59;15296773;19;20026;-78
2023/04/28 17:34:16;;;;;;;1.30;1.20;;;;;;;13.39;100.00;97837.00;15295737;19;20078;-79
2023/04/28 17:39:44;;;;;;;1.80;1.38;;;;;;;13.41;100.00;97834.09;15302438;19;20035;-78
2023/04/28 17:45:08;;;;;;;1.35;1.25;;;;;;;13.41;100.00;97831.38;15297078;19;20038;-78
2023/04/28 17:50:35;;;;;;;1.52;1.40;;;;;;;13.43;100.00;97840.16;15296298;19;20026;-79
2023/04/28 17:56:02;;;;;;;1.70;1.50;;;;;;;13.36;100.00;97836.50;15294715;19;20638;-77
2023/04/28 18:01:33;;;;;;;2.10;1.90;;;;;;;13.30;100.00;97846.22;15291380;19;20006;-77
2023/04/28 18:06:58;;;;;;;1.95;1.45;;;;;;;13.29;100.00;97849.94;15293861;19;20030;-78
2023/04/28 18:12:25;;;;;;;1.60;1.33;;;;;;;13.23;100.00;97851.56;15297611;19;20013;-78
2023/04/28 18:17:55;;;;;;;1.63;1.42;;;;;;;13.23;100.00;97851.56;15306113;19;20006;-78
2023/04/28 18:23:15;;;;;;;2.20;2.00;;;;;;;13.17;100.00;97863.16;15350374;19;20021;-77
2023/04/28 18:28:49;;;;;;;1.88;1.73;;;;;;;13.17;100.00;97857.75;15353103;19;20018;-78
2023/04/28 18:34:16;;;;;;;1.90;1.70;;;;;;;13.16;100.00;97841.72;15339778;19;20015;-78
2023/04/28 18:39:41;;;;;;;1.73;1.63;;;;;;;13.13;100.00;97855.63;15291563;19;20022;-77
2023/04/28 18:45:06;;;;;;;2.22;1.60;;;;;;;13.09;100.00;97861.41;15289586;19;20025;-77
2023/04/28 18:50:35;;;;;;;1.95;1.80;;;;;;;13.03;100.00;97861.34;15293819;19;20022;-77
2023/04/28 18:56:01;;;;;;;2.25;1.83;;;;;;;13.01;100.00;97866.09;15288705;19;20078;-78
2023/04/28 19:01:32;;;;;;;2.25;1.73;;;;;;;12.95;100.00;97871.25;15295332;19;20031;-79
2023/04/28 19:07:04;;;;;;;2.05;1.83;;;;;;;12.91;100.00;97847.50;15291644;19;20153;-78
2023/04/28 19:12:28;;;;;;;1.90;1.70;;;;;;;12.90;100.00;97841.22;15357923;19;20014;-78
2023/04/28 19:17:54;;;;;;;5.90;1.90;;;;;;;12.86;100.00;97850.75;15286198;19;20022;-78
2023/04/28 19:23:22;;;;;;;1.60;1.50;;;;;;;12.78;100.00;97842.75;15287715;19;20051;-78
2023/04/28 19:28:47;;;;;;;2.88;1.90;;;;;;;12.69;100.00;97841.19;15300720;19;20022;-78
2023/04/28 19:34:11;;;;;;;1.80;1.70;;;;;;;12.56;100.00;97839.16;15295359;19;20025;-78
2023/04/28 19:39:39;;;;;;;1.85;1.75;;;;;;;12.45;100.00;97843.16;15305551;19;20757;-79
2023/04/28 19:45:06;;;;;;;1.80;1.70;;;;;;;12.33;100.00;97848.22;15297013;19;20468;-79
2023/04/28 19:50:32;;;;;;;2.28;2.08;;;;;;;12.25;100.00;97865.34;15290587;19;20013;-80
2023/04/28 19:56:00;;;;;;;2.15;1.95;;;;;;;12.14;100.00;97879.31;15285262;19;20377;-76
2023/04/28 20:01:32;;;;;;;1.90;1.80;;;;;;;11.99;100.00;97873.91;15284612;19;20114;-74
2023/04/28 20:06:57;;;;;;;2.22;2.00;;;;;;;11.92;100.00;97889.97;15273988;19;20017;-75
2023/04/28 20:12:25;;;;;;;2.60;2.40;;;;;;;11.78;100.00;97896.16;15288554;19;20015;-75
2023/04/28 20:17:50;;;;;;;2.58;2.35;;;;;;;11.73;100.00;97891.31;15282446;19;20042;-75
2023/04/28 20:23:14;;;;;;;2.50;2.30;;;;;;;11.66;100.00;97893.91;15286275;19;20099;-75
2023/04/28 20:28:43;;;;;;;2.72;2.30;;;;;;;11.54;100.00;97888.06;15275353;19;20022;-75
2023/04/28 20:34:07;;;;;;;2.63;2.33;;;;;;;11.46;100.00;97890.84;15275337;19;20350;-76
2023/04/28 20:39:32;;;;;;;2.17;2.00;;;;;;;11.38;100.00;97904.41;15275743;19;20030;-76
2023/04/28 20:44:59;;;;;;;2.72;2.53;;;;;;;11.32;100.00;97900.56;15309337;19;20456;-75
2023/04/28 20:50:24;;;;;;;2.92;2.50;;;;;;;11.40;100.00;97905.06;15315564;19;20009;-76
2023/04/28 20:55:48;;;;;;;2.60;2.40;;;;;;;11.43;100.00;97912.78;15279256;19;20451;-76
2023/04/28 21:01:16;;;;;;;2.55;2.35;;;;;;;11.45;100.00;97912.63;15286513;19;20022;-76
2023/04/28 21:06:41;;;;;;;2.83;2.58;;;;;;;11.44;100.00;97873.16;15281628;19;20079;-76
2023/04/28 21:12:06;;;;;;;2.72;2.53;;;;;;;11.41;100.00;97869.81;15280582;19;20020;-76
2023/04/28 21:17:34;;;;;;;2.70;2.50;;;;;;;11.37;100.00;97884.66;15282594;19;20611;-76
2023/04/28 21:22:59;;;;;;;3.03;2.50;;;;;;;11.32;100.00;97875.44;15284584;19;20014;-76
2023/04/28 21:28:23;;;;;;;3.20;2.90;;;;;;;11.27;100.00;97881.38;15283493;19;20366;-76
2023/04/28 21:33:52;;;;;;;2.60;2.40;;;;;;;11.24;100.00;97897.91;15282851;19;20038;-76
2023/04/28 21:39:20;;;;;;;2.63;2.42;;;;;;;11.26;100.00;97895.88;15283164;19;20016;-76
2023/04/28 21:44:51;;;;;;;2.63;2.42;;;;;;;11.29;100.00;97897.38;15273587;19;20477;-76
2023/04/28 21:50:22;;;;;;;2.60;2.40;;;;;;;11.33;100.00;97890.59;15288483;19;20074;-76
2023/04/28 21:55:47;;;;;;;2.80;2.60;;;;;;;11.29;100.00;97900.91;15281877;19;20053;-76
2023/04/28 22:01:15;;;;;;;2.50;2.30;;;;;;;11.28;100.00;97912.72;15288453;19;20014;-76
2023/04/28 22:06:43;;;;;;;2.72;2.50;;;;;;;11.25;100.00;97926.53;15278523;19;20054;-76
2023/04/28 22:12:08;;;;;;;2.80;2.60;;;;;;;11.28;100.00;97925.38;15287398;19;20027;-76
2023/04/28 22:17:32;;;;;;;2.90;2.70;;;;;;;11.31;100.00;97928.53;15282212;19;20014;-77
2023/04/28 22:23:00;;;;;;;3.28;2.97;;;;;;;11.33;100.00;97934.59;15284061;19;20018;-77
2023/04/28 22:28:25;;;;;;;2.92;2.72;;;;;;;11.34;100.00;97935.44;15290370;19;20002;-76
2023/04/28 22:33:50;;;;;;;3.10;2.90;;;;;;;11.37;100.00;97930.50;15290915;19;20029;-77
2023/04/28 22:39:18;;;;;;;3.00;2.80;;;;;;;11.37;100.00;97930.50;15295339;19;20355;-77
2023/04/28 22:44:47;;;;;;;3.17;2.85;;;;;;;11.34;100.00;97912.00;15304698;19;20006;-75
2023/04/28 22:50:13;;;;;;;3.00;2.80;;;;;;;11.29;100.00;97910.88;15328446;19;20022;-76
2023/04/28 22:55:41;;;;;;;3.75;3.20;;;;;;;11.27;100.00;97916.41;15280206;19;20071;-77
2023/04/28 23:01:15;;;;;;;3.83;3.40;;;;;;;11.29;100.00;97903.59;15300952;19;20017;-76
2023/04/28 23:06:46;;;;;;;3.03;2.83;;;;;;;11.30;100.00;97899.91;15294346;19;20010;-76
2023/04/28 23:12:16;;;;;;;3.37;2.97;;;;;;;11.32;100.00;97908.66;15296956;19;20021;-77
2023/04/28 23:17:46;;;;;;;2.88;2.67;;;;;;;11.28;100.00;97901.94;15302553;19;20002;-77
2023/04/28 23:23:11;;;;;;;3.40;3.10;;;;;;;11.27;100.00;97905.63;15299338;19;20739;-78
2023/04/28 23:28:41;;;;;;;3.70;3.40;;;;;;;11.19;100.00;97913.78;15301753;19;20462;-77
2023/04/28 23:34:06;;;;;;;3.85;3.55;;;;;;;11.12;100.00;97912.78;15306217;19;20114;-77
2023/04/28 23:39:31;;;;;;;3.88;3.53;;;;;;;11.06;100.00;97906.25;15299857;19;20014;-77
2023/04/28 23:45:00;;;;;;;3.90;3.53;;;;;;;10.99;100.00;97906.16;15290829;19;20082;-77
2023/04/28 23:50:32;;;;;;;3.88;3.58;;;;;;;10.94;100.00;97895.06;15294596;19;20022;-77
2023/04/28 23:55:57;;;;;;;4.17;3.80;;;;;;;10.89;100.00;97897.41;15288170;19;20022;-77
